Time;durP1;ratioP1;P1;durP2;ratioP2;P2;SDS_P1;SDS_P2;PMS_P1;PMS_P2;Temp;Humidity;BMP_temperature;BMP_pressure;BME280_temperature;BME280_humidity;BME280_pressure;Samples;Min_cycle;Max_cycle;Signal;HPM_P1;HPM_P2
2022/11/11 00:00:45;;;;;;;5.10;4.67;;;13.20;99.90;;;;;;5034852;28;20422;-69
2022/11/11 00:03:11;;;;;;;5.00;4.60;;;13.20;99.90;;;;;;5051934;28;20202;-69
2022/11/11 00:05:37;;;;;;;4.60;4.20;;;13.20;99.90;;;;;;5034421;28;20248;-70
2022/11/11 00:08:02;;;;;;;6.80;5.40;;;13.20;99.90;;;;;;5052091;28;20306;-69
2022/11/11 00:10:29;;;;;;;4.70;4.30;;;13.20;99.90;;;;;;5052433;28;20184;-69
2022/11/11 00:12:59;;;;;;;4.67;4.27;;;13.30;99.90;;;;;;5052029;28;20210;-70
2022/11/11 00:15:25;;;;;;;5.27;4.87;;;13.20;99.90;;;;;;5052038;28;20443;-69
2022/11/11 00:26:07;;;;;;;4.97;4.67;;;13.30;99.90;;;;;;5051767;28;20803;-69
2022/11/11 00:28:32;;;;;;;6.93;4.30;;;13.30;99.90;;;;;;5051828;28;20434;-69
2022/11/11 00:31:06;;;;;;;4.77;4.37;;;13.30;99.90;;;;;;5050579;28;20550;-70
2022/11/11 00:33:32;;;;;;;5.30;4.80;;;13.30;99.90;;;;;;5052616;28;20169;-70
2022/11/11 00:35:58;;;;;;;4.73;4.27;;;13.30;99.90;;;;;;5051894;28;20420;-70
2022/11/11 00:41:09;;;;;;;4.53;3.80;;;13.30;99.90;;;;;;5051600;28;20411;-69
2022/11/11 00:43:35;;;;;;;4.30;3.90;;;13.30;99.90;;;;;;5034571;28;20415;-70
2022/11/11 00:51:29;;;;;;;4.60;4.17;;;13.20;99.90;;;;;;5052352;28;20806;-69
2022/11/11 00:53:55;;;;;;;4.80;4.40;;;13.10;99.90;;;;;;5051344;28;20422;-72
2022/11/11 00:56:22;;;;;;;6.83;4.60;;;13.10;99.90;;;;;;5051798;28;20249;-68
2022/11/11 00:58:48;;;;;;;4.33;3.93;;;13.20;99.90;;;;;;5034368;28;20698;-69
2022/11/11 01:01:14;;;;;;;4.57;4.17;;;13.20;99.90;;;;;;5051001;28;20418;-69
2022/11/11 01:03:39;;;;;;;5.00;4.13;;;13.30;99.90;;;;;;5051805;28;20492;-69
2022/11/11 01:06:05;;;;;;;4.53;4.23;;;13.30;99.90;;;;;;5044106;28;20427;-69
2022/11/11 01:08:31;;;;;;;5.33;4.43;;;13.30;99.90;;;;;;5051943;28;20660;-69
2022/11/11 01:10:58;;;;;;;5.10;3.80;;;13.30;99.90;;;;;;5051207;28;20253;-69
2022/11/11 01:13:27;;;;;;;4.53;3.80;;;13.30;99.90;;;;;;5051079;28;20798;-69
2022/11/11 01:15:58;;;;;;;6.13;4.60;;;13.20;99.90;;;;;;5050895;28;20525;-71
2022/11/11 01:18:26;;;;;;;5.23;4.53;;;13.20;99.90;;;;;;5051183;28;20437;-69
2022/11/11 01:21:05;;;;;;;5.20;4.53;;;13.20;99.90;;;;;;5051893;28;20501;-69
2022/11/11 01:23:33;;;;;;;5.07;4.67;;;13.20;99.90;;;;;;5037459;28;20428;-69
2022/11/11 01:26:27;;;;;;;5.10;4.67;;;13.30;99.90;;;;;;5031160;28;20414;-69
2022/11/11 01:28:55;;;;;;;4.60;4.13;;;13.30;99.90;;;;;;5031364;28;20481;-69
2022/11/11 01:31:22;;;;;;;4.73;4.33;;;13.40;99.90;;;;;;5031500;28;20498;-69
2022/11/11 01:33:49;;;;;;;4.33;3.80;;;13.30;99.90;;;;;;5031902;28;20412;-69
2022/11/11 01:36:21;;;;;;;5.07;4.57;;;13.30;99.90;;;;;;5031265;28;20563;-69
2022/11/11 01:38:54;;;;;;;7.73;4.40;;;13.30;99.90;;;;;;5032204;28;20453;-69
2022/11/11 01:41:32;;;;;;;4.70;4.30;;;13.30;99.90;;;;;;5031584;28;20428;-69
2022/11/11 01:44:13;;;;;;;5.43;4.57;;;13.20;99.90;;;;;;5030712;28;20409;-71
2022/11/11 01:46:48;;;;;;;5.00;4.10;;;13.20;99.90;;;;;;5014391;28;20533;-69
2022/11/11 01:49:28;;;;;;;9.30;4.60;;;13.20;99.90;;;;;;5031181;28;20532;-69
2022/11/11 01:52:04;;;;;;;5.03;4.57;;;13.20;99.90;;;;;;5031962;28;20443;-69
2022/11/11 01:54:53;;;;;;;4.80;4.30;;;13.20;99.90;;;;;;5031906;28;20440;-69
2022/11/11 01:57:33;;;;;;;4.20;3.80;;;13.10;99.90;;;;;;5043592;28;20414;-68
2022/11/11 02:00:06;;;;;;;4.73;4.00;;;13.10;99.90;;;;;;5051044;28;20468;-70
2022/11/11 02:02:47;;;;;;;6.50;4.23;;;13.10;99.90;;;;;;5051280;28;20393;-69
2022/11/11 02:08:06;;;;;;;4.53;4.13;;;13.10;99.90;;;;;;5050139;28;20462;-70
2022/11/11 02:10:34;;;;;;;7.17;4.20;;;13.10;99.90;;;;;;5051710;28;20462;-69
2022/11/11 02:15:48;;;;;;;3.80;3.50;;;13.10;99.90;;;;;;5049719;28;20438;-68
2022/11/11 02:18:14;;;;;;;3.93;3.63;;;13.10;99.90;;;;;;5054306;28;20419;-69
2022/11/11 02:20:42;;;;;;;4.83;4.40;;;13.10;99.90;;;;;;5054225;28;20468;-69
2022/11/11 02:23:13;;;;;;;3.40;3.10;;;13.30;99.90;;;;;;5054113;28;20183;-69
2022/11/11 02:25:44;;;;;;;4.60;3.87;;;13.20;99.90;;;;;;5054862;28;20403;-69
2022/11/11 02:28:12;;;;;;;6.43;3.77;;;13.20;99.90;;;;;;5054068;28;20402;-69
2022/11/11 02:30:38;;;;;;;4.20;3.90;;;13.10;99.90;;;;;;5053937;28;20418;-69
2022/11/11 02:33:04;;;;;;;4.77;4.30;;;13.10;99.90;;;;;;5039925;28;20837;-71
2022/11/11 02:35:36;;;;;;;4.77;4.30;;;13.10;99.90;;;;;;5036799;28;20464;-69
2022/11/11 02:38:07;;;;;;;4.50;4.20;;;13.20;99.90;;;;;;5053302;28;20441;-69
2022/11/11 02:41:55;;;;;;;4.43;4.03;;;13.20;99.90;;;;;;5053847;28;20438;-69
2022/11/11 02:43:24;;;;;;;4.33;3.97;;;13.10;99.90;;;;;;5052638;28;20464;-69
2022/11/11 02:45:50;;;;;;;4.70;4.00;;;13.20;99.90;;;;;;5050860;28;20460;-69
2022/11/11 02:48:16;;;;;;;4.10;3.70;;;13.20;99.90;;;;;;5052723;28;20513;-69
2022/11/11 02:50:42;;;;;;;5.37;4.03;;;13.20;99.90;;;;;;5043572;28;20986;-69
2022/11/11 02:53:07;;;;;;;4.13;3.83;;;13.20;99.90;;;;;;5047713;28;20547;-69
2022/11/11 02:55:33;;;;;;;4.00;3.70;;;13.10;99.90;;;;;;5053542;28;20431;-69
2022/11/11 02:58:00;;;;;;;5.77;4.40;;;13.10;99.90;;;;;;5050164;28;20241;-71
2022/11/11 03:00:25;;;;;;;5.60;5.10;;;13.10;99.70;;;;;;5045237;28;20621;-69
2022/11/11 03:02:51;;;;;;;4.33;3.93;;;13.00;99.90;;;;;;5053085;28;20486;-69
2022/11/11 03:05:17;;;;;;;4.20;3.80;;;13.00;99.90;;;;;;5050676;28;20186;-69
2022/11/11 03:07:43;;;;;;;4.23;3.83;;;13.00;99.90;;;;;;5053430;28;20230;-69
2022/11/11 03:10:09;;;;;;;5.37;4.30;;;13.00;99.90;;;;;;5050893;28;20291;-69
2022/11/11 03:12:34;;;;;;;5.03;3.90;;;12.90;99.90;;;;;;5052920;28;20468;-69
2022/11/11 03:15:00;;;;;;;3.90;3.50;;;12.90;99.90;;;;;;5053065;28;20242;-71
2022/11/11 03:17:41;;;;;;;4.50;4.20;;;12.80;99.90;;;;;;5030879;28;20189;-69
2022/11/11 03:23:10;;;;;;;4.70;4.30;;;12.70;99.90;;;;;;5047052;28;20522;-71
2022/11/11 03:25:44;;;;;;;6.67;3.93;;;12.60;99.90;;;;;;5033764;28;20396;-70
2022/11/11 03:28:12;;;;;;;5.70;4.00;;;12.60;99.90;;;;;;5050775;28;20426;-69
2022/11/11 03:30:40;;;;;;;4.67;3.80;;;12.50;99.90;;;;;;5052684;28;20913;-69
2022/11/11 03:33:06;;;;;;;4.73;4.10;;;12.60;99.90;;;;;;5040751;28;20419;-69
2022/11/11 03:35:35;;;;;;;4.00;3.70;;;12.60;99.90;;;;;;5015818;28;20418;-69
2022/11/11 03:40:47;;;;;;;4.07;3.70;;;12.60;99.90;;;;;;5041741;28;20427;-69
2022/11/11 03:43:14;;;;;;;4.93;4.03;;;12.60;99.90;;;;;;5051855;28;20526;-69
2022/11/11 03:45:40;;;;;;;4.60;4.17;;;12.60;99.90;;;;;;5053287;28;20424;-69
2022/11/11 03:48:06;;;;;;;3.97;3.63;;;12.60;99.90;;;;;;5018105;28;20936;-69
2022/11/11 03:50:32;;;;;;;5.10;4.10;;;12.60;99.90;;;;;;5048576;28;20413;-69
2022/11/11 03:52:58;;;;;;;4.10;3.80;;;12.60;99.90;;;;;;5033465;28;20181;-68
2022/11/11 03:55:24;;;;;;;4.60;4.30;;;12.60;99.90;;;;;;5033342;28;20704;-68
2022/11/11 03:57:50;;;;;;;5.00;3.77;;;12.60;99.90;;;;;;5033196;28;20418;-69
2022/11/11 04:00:19;;;;;;;4.57;3.70;;;12.60;99.90;;;;;;5032383;28;20841;-69
2022/11/11 04:11:15;;;;;;;4.97;4.43;;;12.60;99.90;;;;;;5010747;28;20469;-70
2022/11/11 04:16:28;;;;;;;5.60;3.93;;;12.60;99.90;;;;;;5042570;28;20516;-70
2022/11/11 04:21:44;;;;;;;4.17;3.87;;;12.60;99.90;;;;;;5052360;28;20184;-70
2022/11/11 04:27:00;;;;;;;3.73;3.50;;;12.70;99.90;;;;;;5036790;28;20405;-70
2022/11/11 04:29:29;;;;;;;4.87;4.20;;;12.70;99.90;;;;;;5018441;28;20408;-70
2022/11/11 04:34:56;;;;;;;4.00;3.67;;;12.70;99.90;;;;;;5051620;28;20838;-71
2022/11/11 04:37:24;;;;;;;4.33;3.93;;;12.80;99.90;;;;;;5041972;28;20426;-70
2022/11/11 04:42:34;;;;;;;4.90;4.50;;;12.80;99.90;;;;;;5032254;28;20408;-70
2022/11/11 04:47:52;;;;;;;8.93;6.60;;;12.90;99.90;;;;;;5048795;28;20528;-71
2022/11/11 04:50:18;;;;;;;5.97;5.37;;;12.80;99.90;;;;;;5033456;28;20822;-71
2022/11/11 04:52:43;;;;;;;4.97;4.57;;;12.90;99.90;;;;;;5052132;28;20456;-70
2022/11/11 04:57:53;;;;;;;4.60;4.27;;;12.90;99.90;;;;;;5032786;28;20174;-70
2022/11/11 05:00:19;;;;;;;7.50;6.10;;;12.90;99.90;;;;;;5031402;28;20401;-70
2022/11/11 05:08:54;;;;;;;7.33;6.53;;;12.90;99.90;;;;;;5050143;28;20218;-70
2022/11/11 05:11:03;;;;;;;8.30;6.23;;;12.90;99.90;;;;;;5049376;28;20507;-70
2022/11/11 05:22:22;;;;;;;11.13;6.33;;;12.80;99.90;;;;;;5052012;28;20405;-70
2022/11/11 05:27:33;;;;;;;6.63;4.63;;;12.70;99.90;;;;;;5039813;28;20432;-67
2022/11/11 05:29:58;;;;;;;6.87;5.97;;;12.80;99.90;;;;;;5051581;28;20833;-67
2022/11/11 05:32:25;;;;;;;6.30;5.10;;;12.80;99.90;;;;;;5032731;28;20244;-68
2022/11/11 05:34:51;;;;;;;5.83;5.33;;;12.70;99.90;;;;;;5044812;28;20191;-68
2022/11/11 05:37:17;;;;;;;7.00;4.60;;;12.70;99.90;;;;;;5049615;28;20472;-68
2022/11/11 05:39:43;;;;;;;5.20;4.70;;;12.80;99.90;;;;;;5051641;28;20501;-68
2022/11/11 05:42:09;;;;;;;6.43;4.13;;;12.80;99.90;;;;;;5032543;28;20478;-70
2022/11/11 05:44:34;;;;;;;6.93;5.43;;;12.80;99.90;;;;;;5050341;28;20443;-67
2022/11/11 05:47:00;;;;;;;6.00;5.33;;;12.80;99.80;;;;;;5044580;28;21007;-68
2022/11/11 05:49:27;;;;;;;11.00;7.50;;;12.90;99.80;;;;;;5055193;28;20561;-68
2022/11/11 05:51:54;;;;;;;6.23;5.60;;;12.90;99.70;;;;;;5055865;28;20803;-68
2022/11/11 05:54:21;;;;;;;7.17;5.40;;;12.90;99.50;;;;;;5054027;28;20944;-67
2022/11/11 05:56:48;;;;;;;6.03;5.40;;;12.90;99.60;;;;;;5055689;28;20412;-66
2022/11/11 05:59:14;;;;;;;7.03;6.33;;;12.90;99.50;;;;;;5054848;28;20404;-67
2022/11/11 06:01:40;;;;;;;8.13;5.27;;;12.90;99.40;;;;;;5049907;28;20439;-68
2022/11/11 06:04:06;;;;;;;6.13;5.53;;;13.00;99.20;;;;;;5043238;28;20463;-67
2022/11/11 06:06:33;;;;;;;5.80;5.07;;;12.90;99.20;;;;;;5053144;28;20430;-67
2022/11/11 06:08:58;;;;;;;6.80;5.90;;;12.90;99.10;;;;;;5054011;28;20417;-67
2022/11/11 06:11:26;;;;;;;5.70;4.50;;;12.80;99.10;;;;;;5048879;28;20557;-69
2022/11/11 06:13:52;;;;;;;6.13;5.63;;;12.90;99.20;;;;;;5050881;28;20195;-70
2022/11/11 06:16:18;;;;;;;4.20;3.90;;;12.80;99.30;;;;;;5053185;28;20977;-70
2022/11/11 06:18:44;;;;;;;4.10;3.80;;;12.80;99.30;;;;;;5054167;28;20519;-67
2022/11/11 06:21:10;;;;;;;5.00;4.60;;;12.90;99.30;;;;;;5052881;28;20182;-66
2022/11/11 06:23:36;;;;;;;5.07;4.67;;;12.90;99.30;;;;;;5041454;28;20185;-66
2022/11/11 06:26:14;;;;;;;5.30;4.80;;;12.90;99.40;;;;;;5051608;28;20931;-68
2022/11/11 06:28:47;;;;;;;4.97;4.57;;;12.90;99.20;;;;;;5007614;28;20208;-68
2022/11/11 06:31:20;;;;;;;4.27;3.90;;;12.90;99.20;;;;;;5043996;28;20892;-69
2022/11/11 06:33:46;;;;;;;8.30;7.50;;;12.90;99.20;;;;;;5035405;28;20459;-68
2022/11/11 06:36:14;;;;;;;4.80;4.40;;;12.90;99.10;;;;;;5000487;28;20776;-71
2022/11/11 06:38:40;;;;;;;5.60;4.47;;;13.00;99.00;;;;;;5035281;28;20477;-68
2022/11/11 06:41:06;;;;;;;6.30;4.80;;;12.90;99.00;;;;;;5046849;28;20444;-67
2022/11/11 06:43:33;;;;;;;4.80;4.50;;;12.90;99.10;;;;;;5053976;28;20917;-68
2022/11/11 06:45:59;;;;;;;4.60;4.30;;;12.90;99.10;;;;;;5045114;28;20538;-68
2022/11/11 06:48:26;;;;;;;4.20;3.90;;;12.90;99.00;;;;;;5049390;28;20512;-68
2022/11/11 06:50:52;;;;;;;4.87;4.47;;;12.90;98.90;;;;;;5033982;28;20780;-69
2022/11/11 06:53:19;;;;;;;4.80;4.40;;;12.80;98.80;;;;;;5051852;28;20440;-67
2022/11/11 06:55:45;;;;;;;5.30;4.13;;;12.70;99.10;;;;;;5050178;28;20477;-68
2022/11/11 06:58:13;;;;;;;7.27;4.97;;;12.70;99.20;;;;;;5048394;28;20466;-67
2022/11/11 07:00:39;;;;;;;6.70;5.90;;;12.70;99.50;;;;;;5052568;28;20181;-67
2022/11/11 07:03:08;;;;;;;8.80;5.70;;;12.60;99.60;;;;;;5054095;28;20403;-67
2022/11/11 07:05:34;;;;;;;6.03;5.50;;;12.50;99.80;;;;;;5053925;28;20427;-67
2022/11/11 07:08:04;;;;;;;6.20;5.70;;;12.50;99.80;;;;;;5054265;28;20467;-67
2022/11/11 07:10:32;;;;;;;5.97;5.07;;;12.40;99.90;;;;;;5053778;28;20214;-67
2022/11/11 07:12:58;;;;;;;5.43;5.03;;;12.40;99.90;;;;;;5053902;28;21028;-67
2022/11/11 07:15:24;;;;;;;5.40;5.00;;;12.30;99.90;;;;;;5053758;28;20515;-67
2022/11/11 07:17:50;;;;;;;5.47;4.97;;;12.30;99.90;;;;;;5036590;28;20184;-67
2022/11/11 07:20:16;;;;;;;4.83;4.50;;;12.40;99.90;;;;;;5053730;28;20494;-67
2022/11/11 07:22:41;;;;;;;5.77;5.27;;;12.20;99.90;;;;;;5054111;28;20420;-67
2022/11/11 07:25:07;;;;;;;6.30;5.63;;;12.20;99.90;;;;;;5054046;28;20630;-67
2022/11/11 07:27:37;;;;;;;6.33;5.77;;;12.20;99.90;;;;;;5052718;28;20507;-67
2022/11/11 07:30:05;;;;;;;7.10;6.37;;;12.20;99.90;;;;;;5053710;28;20657;-67
2022/11/11 07:32:30;;;;;;;8.30;6.83;;;12.20;99.90;;;;;;5053049;28;20833;-67
2022/11/11 07:34:56;;;;;;;6.43;5.43;;;12.20;99.90;;;;;;5053935;28;20423;-67
2022/11/11 07:37:22;;;;;;;6.03;5.47;;;12.20;99.90;;;;;;5052940;28;20232;-67
2022/11/11 07:39:48;;;;;;;5.43;4.93;;;12.20;99.90;;;;;;5053578;28;20641;-67
2022/11/11 07:42:14;;;;;;;5.30;4.80;;;12.20;99.90;;;;;;5053779;28;20466;-67
2022/11/11 07:44:40;;;;;;;6.97;6.00;;;12.20;99.90;;;;;;5035656;28;20190;-67
2022/11/11 07:47:06;;;;;;;6.50;6.00;;;12.30;99.90;;;;;;5053666;28;20412;-67
2022/11/11 07:49:31;;;;;;;5.63;5.13;;;12.30;99.90;;;;;;5053066;28;20412;-67
2022/11/11 07:51:57;;;;;;;5.17;4.63;;;12.30;99.90;;;;;;5053376;28;20468;-67
2022/11/11 07:54:23;;;;;;;5.23;4.83;;;12.10;99.90;;;;;;5052936;28;20633;-67
2022/11/11 07:56:49;;;;;;;4.87;4.47;;;11.90;99.90;;;;;;5052505;28;20178;-67
2022/11/11 07:59:14;;;;;;;5.20;4.80;;;12.10;99.90;;;;;;5035617;28;20283;-67
2022/11/11 08:01:40;;;;;;;5.63;4.47;;;12.20;99.90;;;;;;5052812;28;20177;-67
2022/11/11 08:04:06;;;;;;;4.67;4.27;;;12.40;99.90;;;;;;5035348;28;20268;-67
2022/11/11 08:06:31;;;;;;;10.80;9.70;;;12.40;99.90;;;;;;5051807;28;20174;-67
2022/11/11 08:08:57;;;;;;;7.63;6.10;;;12.50;99.90;;;;;;5052256;28;20177;-67
2022/11/11 08:14:08;;;;;;;4.70;4.20;;;12.60;99.90;;;;;;5053067;28;20180;-67
2022/11/11 08:16:33;;;;;;;4.23;3.93;;;12.50;99.90;;;;;;5001141;28;20481;-67
2022/11/11 08:19:00;;;;;;;4.93;4.53;;;12.50;99.90;;;;;;5051988;28;20424;-67
2022/11/11 08:21:26;;;;;;;5.83;3.97;;;12.60;99.90;;;;;;5021717;28;20504;-68
2022/11/11 08:23:52;;;;;;;4.33;4.03;;;12.80;99.90;;;;;;5015138;28;20501;-68
2022/11/11 08:26:20;;;;;;;4.20;3.90;;;12.70;99.90;;;;;;5048485;28;20429;-71
2022/11/11 08:28:47;;;;;;;4.63;4.23;;;12.60;99.90;;;;;;5052238;28;20472;-67
2022/11/11 08:31:13;;;;;;;10.13;8.77;;;12.80;99.90;;;;;;5034975;28;20850;-67
2022/11/11 08:33:38;;;;;;;6.30;5.70;;;12.90;99.90;;;;;;5051309;28;20797;-67
2022/11/11 08:36:06;;;;;;;3.83;3.53;;;13.00;99.90;;;;;;5052868;28;20426;-67
2022/11/11 08:38:33;;;;;;;4.07;3.47;;;13.10;99.90;;;;;;5031374;28;20199;-68
2022/11/11 08:41:00;;;;;;;4.33;3.93;;;13.00;99.80;;;;;;5042083;28;20524;-67
2022/11/11 08:43:31;;;;;;;3.80;3.50;;;13.10;99.10;;;;;;5052076;28;20459;-68
2022/11/11 08:45:58;;;;;;;4.33;4.00;;;13.20;99.80;;;;;;5037936;28;20417;-68
2022/11/11 08:48:24;;;;;;;4.27;4.00;;;13.30;99.10;;;;;;5045847;28;20746;-68
2022/11/11 08:50:52;;;;;;;4.20;4.00;;;13.40;99.20;;;;;;5039718;28;20442;-68
2022/11/11 08:53:18;;;;;;;4.23;3.93;;;13.80;98.60;;;;;;5033416;28;20420;-68
2022/11/11 08:55:45;;;;;;;4.43;4.13;;;14.00;97.70;;;;;;5045103;28;20431;-68
2022/11/11 08:58:13;;;;;;;4.07;3.77;;;14.30;97.00;;;;;;5051768;28;20789;-68
2022/11/11 09:00:38;;;;;;;4.83;3.93;;;14.60;95.90;;;;;;5051938;28;20404;-67
2022/11/11 09:03:06;;;;;;;6.23;4.73;;;14.90;95.30;;;;;;5037905;28;20420;-68
2022/11/11 09:05:32;;;;;;;4.37;3.73;;;15.20;94.80;;;;;;5051795;28;20176;-67
2022/11/11 09:08:05;;;;;;;4.37;4.07;;;15.60;93.20;;;;;;5050959;28;20963;-68
2022/11/11 09:10:32;;;;;;;4.10;3.70;;;15.70;93.00;;;;;;5039306;28;20845;-68
2022/11/11 09:12:58;;;;;;;4.23;3.93;;;16.00;92.50;;;;;;5043950;28;20539;-68
2022/11/11 09:15:25;;;;;;;5.90;3.90;;;16.20;91.40;;;;;;5051069;28;20430;-68
2022/11/11 09:17:51;;;;;;;3.23;3.10;;;16.30;91.10;;;;;;5040940;28;20424;-68
2022/11/11 09:20:17;;;;;;;3.50;3.30;;;16.40;90.60;;;;;;5033832;28;20424;-68
2022/11/11 09:22:44;;;;;;;3.27;3.07;;;16.50;90.10;;;;;;5035740;28;20828;-69
2022/11/11 09:25:11;;;;;;;3.53;3.27;;;16.70;90.70;;;;;;5055006;28;20468;-68
2022/11/11 09:27:37;;;;;;;3.90;3.60;;;16.80;90.00;;;;;;5054985;28;20428;-67
2022/11/11 09:30:03;;;;;;;3.43;3.03;;;16.90;88.60;;;;;;5055167;28;20459;-68
2022/11/11 09:32:29;;;;;;;2.93;2.80;;;17.00;89.40;;;;;;5055470;28;20482;-68
2022/11/11 09:34:55;;;;;;;3.57;3.37;;;17.20;88.00;;;;;;5042860;28;20468;-68
2022/11/11 09:37:21;;;;;;;3.33;3.23;;;17.30;87.60;;;;;;4986658;28;20228;-68
2022/11/11 09:39:47;;;;;;;3.87;3.33;;;17.40;85.90;;;;;;5038852;28;20521;-68
2022/11/11 09:42:34;;;;;;;4.13;3.83;;;17.50;84.80;;;;;;5040534;28;20416;-68
2022/11/11 09:45:23;;;;;;;3.37;3.17;;;17.50;84.00;;;;;;5047221;28;20256;-68
2022/11/11 09:48:01;;;;;;;3.40;3.20;;;17.60;84.20;;;;;;5050966;28;20491;-68
2022/11/11 09:50:30;;;;;;;3.17;3.07;;;17.70;84.40;;;;;;5035355;28;20420;-71
2022/11/11 09:52:59;;;;;;;3.73;3.43;;;17.90;82.90;;;;;;5046464;28;20451;-68
2022/11/11 09:55:34;;;;;;;3.43;3.33;;;18.10;82.40;;;;;;5054332;28;20468;-71
2022/11/11 09:58:20;;;;;;;3.00;2.90;;;18.20;80.70;;;;;;5054876;28;20811;-68
2022/11/11 10:00:50;;;;;;;2.93;2.83;;;18.50;80.80;;;;;;5037334;28;20412;-68
2022/11/11 10:03:22;;;;;;;2.70;2.60;;;18.50;79.00;;;;;;5035665;28;21015;-67
2022/11/11 10:05:53;;;;;;;2.83;2.63;;;18.60;79.70;;;;;;5017640;28;20467;-69
2022/11/11 10:08:25;;;;;;;2.60;2.50;;;18.70;78.70;;;;;;5046430;28;20998;-68
2022/11/11 10:10:53;;;;;;;2.80;2.60;;;19.00;77.70;;;;;;5047277;28;20459;-68
2022/11/11 10:13:33;;;;;;;2.63;2.43;;;19.30;76.10;;;;;;5018029;28;20739;-68
2022/11/11 10:16:23;;;;;;;3.07;2.70;;;19.50;75.00;;;;;;5017867;28;20413;-67
2022/11/11 10:18:51;;;;;;;2.53;2.43;;;19.60;75.10;;;;;;5035383;28;20417;-69
2022/11/11 10:21:25;;;;;;;3.23;2.67;;;19.80;73.60;;;;;;5055448;28;20416;-68
2022/11/11 10:23:58;;;;;;;2.67;2.47;;;20.00;71.70;;;;;;5055337;28;20415;-68
2022/11/11 10:26:43;;;;;;;2.63;2.53;;;20.10;73.30;;;;;;5048690;28;20820;-68
2022/11/11 10:29:18;;;;;;;2.30;2.20;;;20.00;68.80;;;;;;5035516;28;20455;-68
2022/11/11 10:31:51;;;;;;;2.50;2.37;;;20.10;70.40;;;;;;5033509;28;20966;-68
2022/11/11 10:34:19;;;;;;;2.67;2.57;;;20.20;70.40;;;;;;5035380;28;20452;-68
2022/11/11 10:36:49;;;;;;;3.50;3.30;;;20.30;68.90;;;;;;5034623;28;20441;-68
2022/11/11 10:39:23;;;;;;;2.50;2.40;;;20.40;69.50;;;;;;5035004;28;20732;-68
2022/11/11 10:41:51;;;;;;;2.60;2.50;;;20.50;69.20;;;;;;5034598;28;20412;-68
2022/11/11 10:44:25;;;;;;;2.50;2.30;;;20.60;67.30;;;;;;5035297;28;20520;-68
2022/11/11 10:47:04;;;;;;;2.73;2.63;;;20.60;67.90;;;;;;5034869;28;20898;-68
2022/11/11 10:49:34;;;;;;;3.20;3.00;;;20.60;67.80;;;;;;5034524;28;20901;-68
2022/11/11 10:52:07;;;;;;;2.53;2.43;;;20.70;68.00;;;;;;5017155;28;20461;-68
2022/11/11 10:54:46;;;;;;;3.00;2.80;;;20.60;68.70;;;;;;5036318;28;20535;-68
2022/11/11 10:57:25;;;;;;;2.60;2.43;;;20.50;66.00;;;;;;5054890;28;20408;-68
2022/11/11 10:59:58;;;;;;;2.63;2.43;;;20.50;66.90;;;;;;5054092;28;20396;-68
2022/11/11 11:02:33;;;;;;;4.73;2.30;;;20.60;66.10;;;;;;5054791;28;20443;-68
2022/11/11 11:05:11;;;;;;;2.70;2.50;;;20.60;65.00;;;;;;5054743;28;20399;-68
2022/11/11 11:07:44;;;;;;;2.50;2.40;;;20.70;64.70;;;;;;5053748;28;20463;-68
2022/11/11 11:10:38;;;;;;;2.90;2.70;;;20.80;63.40;;;;;;5054415;28;20868;-68
2022/11/11 11:13:08;;;;;;;2.70;2.50;;;20.80;63.60;;;;;;5054529;28;20975;-68
2022/11/11 11:15:39;;;;;;;2.90;2.70;;;20.80;64.40;;;;;;5036049;28;20752;-66
2022/11/11 11:18:12;;;;;;;3.63;2.73;;;20.90;64.10;;;;;;5054428;28;20446;-67
2022/11/11 11:20:53;;;;;;;2.90;2.70;;;20.90;63.50;;;;;;5053726;28;20802;-67
2022/11/11 11:23:35;;;;;;;3.10;2.90;;;21.00;63.30;;;;;;5036420;28;20903;-68
2022/11/11 11:26:02;;;;;;;4.07;3.87;;;21.00;63.20;;;;;;5053244;28;20751;-67
2022/11/11 11:28:28;;;;;;;4.37;3.97;;;21.10;63.80;;;;;;5035571;28;20771;-68
2022/11/11 11:31:04;;;;;;;3.77;3.57;;;21.20;63.40;;;;;;5051549;28;20428;-67
2022/11/11 11:33:48;;;;;;;2.47;2.27;;;21.20;62.90;;;;;;5053218;28;20775;-68
2022/11/11 11:36:16;;;;;;;2.70;2.50;;;21.20;62.70;;;;;;5054015;28;20431;-68
2022/11/11 11:38:49;;;;;;;2.50;2.40;;;21.20;64.20;;;;;;5052987;28;20416;-66
2022/11/11 11:41:35;;;;;;;2.80;2.70;;;21.10;64.40;;;;;;5053014;28;20432;-66
2022/11/11 11:44:01;;;;;;;3.07;2.87;;;20.90;63.20;;;;;;5052815;28;20792;-68
2022/11/11 11:46:31;;;;;;;2.90;2.73;;;20.80;61.80;;;;;;5053621;28;20447;-67
2022/11/11 11:48:57;;;;;;;2.77;2.57;;;20.70;63.30;;;;;;5053357;28;20169;-67
2022/11/11 11:51:40;;;;;;;2.60;2.50;;;20.70;62.30;;;;;;5053526;28;20456;-67
2022/11/11 11:54:37;;;;;;;3.10;2.90;;;20.60;63.30;;;;;;5053679;28;20166;-68
2022/11/11 11:57:31;;;;;;;2.67;2.57;;;20.50;64.30;;;;;;5052384;28;20435;-68
2022/11/11 12:00:12;;;;;;;2.77;2.67;;;20.40;63.80;;;;;;5042625;28;20452;-68
2022/11/11 12:03:27;;;;;;;3.07;2.93;;;20.30;63.00;;;;;;5052692;28;20416;-68
2022/11/11 12:06:05;;;;;;;3.33;3.13;;;20.10;63.00;;;;;;5018443;28;20912;-68
2022/11/11 12:08:54;;;;;;;4.03;2.90;;;20.10;64.00;;;;;;5052406;28;20517;-71
2022/11/11 12:11:43;;;;;;;2.90;2.70;;;20.10;65.00;;;;;;5053602;28;20448;-68
2022/11/11 12:14:28;;;;;;;2.47;2.37;;;20.10;65.30;;;;;;5035634;28;20776;-68
2022/11/11 12:17:18;;;;;;;2.40;2.30;;;20.00;65.00;;;;;;5052641;28;20439;-67
2022/11/11 12:20:06;;;;;;;2.57;2.47;;;20.00;65.10;;;;;;5052598;28;20409;-68
2022/11/11 12:23:13;;;;;;;3.17;2.97;;;19.80;66.40;;;;;;5035100;28;20832;-70
2022/11/11 12:26:02;;;;;;;3.10;2.90;;;19.80;66.50;;;;;;5052450;28;20420;-67
2022/11/11 12:28:46;;;;;;;3.07;2.90;;;19.70;66.40;;;;;;5052989;28;20495;-67
2022/11/11 12:31:12;;;;;;;2.80;2.70;;;19.70;67.70;;;;;;5052641;28;20456;-67
2022/11/11 12:33:48;;;;;;;3.03;2.83;;;19.70;65.90;;;;;;5052266;28;20415;-68
2022/11/11 12:36:39;;;;;;;4.03;3.53;;;19.70;65.70;;;;;;5034353;28;20181;-68
2022/11/11 12:39:25;;;;;;;2.60;2.50;;;19.60;66.30;;;;;;5052785;28;20435;-68
2022/11/11 12:42:05;;;;;;;3.20;2.57;;;19.50;66.40;;;;;;5052003;28;20903;-67
2022/11/11 12:45:08;;;;;;;2.40;2.30;;;19.40;66.40;;;;;;5052798;28;20404;-67
2022/11/11 12:47:33;;;;;;;7.00;3.00;;;19.20;65.60;;;;;;5051674;28;20510;-69
2022/11/11 12:50:20;;;;;;;2.10;2.00;;;19.10;67.40;;;;;;5052667;28;20496;-67
2022/11/11 12:53:22;;;;;;;3.00;2.80;;;19.10;67.00;;;;;;5052055;28;20193;-67
2022/11/11 12:56:20;;;;;;;2.53;2.33;;;19.10;67.80;;;;;;5051996;28;20498;-67
2022/11/11 12:58:54;;;;;;;2.47;2.30;;;18.90;67.30;;;;;;5052020;28;20447;-67
2022/11/11 13:01:48;;;;;;;2.53;2.43;;;18.60;67.30;;;;;;5052293;28;20416;-67
2022/11/11 13:04:41;;;;;;;2.80;2.70;;;18.50;67.70;;;;;;5034709;28;20405;-68
2022/11/11 13:07:40;;;;;;;2.47;2.37;;;18.50;67.90;;;;;;5033112;28;20516;-67
2022/11/11 13:10:35;;;;;;;2.90;2.70;;;18.60;68.00;;;;;;5051765;28;20417;-67
2022/11/11 13:13:22;;;;;;;2.40;2.20;;;18.60;67.60;;;;;;5033634;28;20543;-67
2022/11/11 13:15:48;;;;;;;2.50;2.40;;;18.50;67.30;;;;;;5051345;28;20397;-68
2022/11/11 13:18:27;;;;;;;2.40;2.30;;;18.50;67.70;;;;;;5052135;28;20412;-68
2022/11/11 13:20:59;;;;;;;3.30;3.10;;;18.60;67.00;;;;;;5051735;28;20794;-68
2022/11/11 13:23:25;;;;;;;2.70;2.50;;;18.60;67.20;;;;;;5052399;28;20412;-68
2022/11/11 13:25:56;;;;;;;2.00;1.80;;;18.60;67.10;;;;;;5051954;28;20414;-68
2022/11/11 13:28:37;;;;;;;2.00;1.90;;;18.70;66.60;;;;;;5000671;28;20777;-67
2022/11/11 13:31:22;;;;;;;2.10;2.00;;;18.60;66.00;;;;;;5050847;28;20927;-68
2022/11/11 13:33:52;;;;;;;2.33;2.20;;;18.60;66.50;;;;;;5051601;28;20411;-68
2022/11/11 13:36:27;;;;;;;2.40;2.30;;;18.60;67.60;;;;;;5052235;28;20396;-67
2022/11/11 13:39:00;;;;;;;4.37;2.13;;;18.60;68.40;;;;;;5051561;28;20498;-67
2022/11/11 13:41:32;;;;;;;2.40;2.20;;;18.60;67.90;;;;;;5051961;28;20436;-68
2022/11/11 13:44:04;;;;;;;3.07;2.77;;;18.60;67.90;;;;;;5047321;28;21159;-67
2022/11/11 13:46:40;;;;;;;2.70;2.60;;;18.60;68.30;;;;;;5046230;28;20439;-68
2022/11/11 13:49:30;;;;;;;2.67;2.57;;;18.60;70.20;;;;;;5046807;28;20771;-67
2022/11/11 13:52:01;;;;;;;2.10;2.10;;;18.50;69.40;;;;;;5018836;28;20483;-67
2022/11/11 13:54:34;;;;;;;2.40;2.30;;;18.40;69.40;;;;;;5032590;28;20433;-69
2022/11/11 13:57:28;;;;;;;2.80;2.60;;;18.30;70.80;;;;;;5048807;28;20937;-68
2022/11/11 14:00:01;;;;;;;2.70;2.60;;;18.20;69.10;;;;;;5047865;28;20435;-69
2022/11/11 14:02:34;;;;;;;2.67;2.57;;;18.10;70.40;;;;;;5044074;28;20462;-68
2022/11/11 14:05:04;;;;;;;3.90;3.70;;;18.00;70.50;;;;;;5048285;28;20605;-69
2022/11/11 14:07:42;;;;;;;4.10;3.90;;;17.90;70.30;;;;;;5049930;28;20476;-68
2022/11/11 14:10:29;;;;;;;3.63;3.43;;;17.90;71.60;;;;;;5048710;28;20443;-68
2022/11/11 14:12:57;;;;;;;3.80;3.70;;;17.90;71.40;;;;;;5042210;28;20496;-69
2022/11/11 14:15:36;;;;;;;2.60;2.40;;;17.80;72.00;;;;;;5053770;28;20493;-69
2022/11/11 14:18:17;;;;;;;3.10;2.90;;;17.70;71.70;;;;;;5050556;28;20435;-68
2022/11/11 14:20:48;;;;;;;2.80;2.70;;;17.70;72.20;;;;;;5054201;28;20428;-69
2022/11/11 14:23:25;;;;;;;2.90;2.80;;;17.60;72.50;;;;;;5055071;28;20743;-68